Sunday, September 21, 2014, 2:07 PM EDT

KSBY, Salisbury-wicomico Cty Reg

Location: Salisbury, MD, United States Lat: 38.333
Local Time: 2:07 PM EDT (18:07 GMT) Lon: -75.5
Time Zone: US/Eastern Elev: 52 ft

Show me the last for .
Show Decoded

2014-09-21 13:54 METAR KSBY 211754Z 34008KT 10SM FEW020 27/21 A2973 RMK AO2 SLP070 T02720206
                 10272 20217 58016 =
2014-09-21 13:38 METAR KSBY 211738Z 30008KT 10SM SCT019 26/20 A2974 RMK AO2 =
2014-09-21 13:23 METAR KSBY 211723Z 32010KT 10SM BKN017 BKN022 26/20 A2975 RMK AO2 =
2014-09-21 12:54 METAR KSBY 211654Z 31007KT 10SM BKN014 BKN023 26/21 A2976 RMK AO2 SLP080
                 T02610206 =
2014-09-21 11:54 METAR KSBY 211554Z 34004KT 10SM BKN010 25/21 A2978 RMK AO2 SLP086 T02500206 =
2014-09-21 11:52 METAR KSBY 211552Z 34004KT 10SM BKN010 26/21 A2978 RMK AO2 CIG 008V012 =
2014-09-21 11:17 METAR KSBY 211517Z 02003KT 9SM BKN006 24/21 A2980 RMK AO2 =
2014-09-21 10:54 METAR KSBY 211454Z 05006KT 7SM BKN004 24/21 A2981 RMK AO2 SLP095 T02390206 58018
                 =
2014-09-21 09:54 METAR KSBY 211354Z 35007KT 3SM HZ OVC004 23/21 A2983 RMK AO2 SLP105 T02330206 =
2014-09-21 09:01 METAR KSBY 211301Z 04003KT 3SM BR OVC002 22/21 A2984 RMK AO2 =
2014-09-21 08:54 METAR KSBY 211254Z 02004KT 2SM BR OVC002 22/21 A2984 RMK AO2 SLP107 T02220206 =
2014-09-21 08:47 METAR KSBY 211247Z 02003KT 2SM BR OVC002 22/21 A2984 RMK AO2 =
2014-09-21 08:37 METAR KSBY 211237Z 02003KT 3SM BR OVC002 22/21 A2985 RMK AO2 =
2014-09-21 08:17 METAR KSBY 211217Z 36004KT 2SM BR OVC002 22/20 A2985 =
2014-09-21 07:54 METAR KSBY 211154Z 04003KT 1 1/4SM BR OVC002 22/20 A2986 RMK AO2 SLP113
                 T02170200 10217 20211 50000 =
2014-09-21 07:52 METAR KSBY 211152Z 03003KT 1 1/4SM BR OVC002 22/19 A2986 RMK AO2 =
2014-09-21 07:41 METAR KSBY 211141Z 36004KT 2 1/2SM BR OVC002 22/20 A2986 RMK AO2 =
2014-09-21 07:12 METAR KSBY 211112Z 05005KT 1 1/2SM BR OVC002 21/19 A2986 RMK AO2 =
2014-09-21 07:02 METAR KSBY 211102Z 06006KT 2 1/2SM BR OVC002 21/19 A2986 RMK AO2 =
2014-09-21 06:54 METAR KSBY 211054Z 05004KT 3SM BR OVC002 21/19 A2986 RMK AO2 SLP113 T02110194 =
2014-09-21 06:50 METAR KSBY 211050Z 04005KT 3SM BR OVC002 21/19 A2986 RMK AO2 =
2014-09-21 06:38 METAR KSBY 211038Z 03005KT 2 1/2SM BR OVC002 21/19 A2987 RMK AO2 =
2014-09-21 06:18 METAR KSBY 211018Z 01005KT 1 3/4SM BR OVC002 21/19 A2988 RMK AO2 =
2014-09-21 06:05 METAR KSBY 211005Z 01004KT 2 1/2SM BR OVC002 21/19 A2988 RMK AO2 =
2014-09-21 05:54 METAR KSBY 210954Z 01003KT 1 1/2SM BR OVC002 21/19 A2988 RMK AO2 SLP119
                 T02110194 =
2014-09-21 05:26 METAR KSBY 210926Z AUTO 36005KT 1 3/4SM BR OVC003 21/19 A2989 RMK AO2 =
2014-09-21 05:09 METAR KSBY 210909Z AUTO 01003KT 3SM BR OVC003 21/19 A2989 RMK AO2 =
2014-09-21 04:54 METAR KSBY 210854Z AUTO 36004KT 2 1/2SM BR OVC003 21/19 A2989 RMK AO2 SLP125
                 T02110194 56016 =
2014-09-21 04:52 METAR KSBY 210852Z AUTO 35005KT 2 1/2SM BR OVC003 21/19 A2989 RMK AO2 =
2014-09-21 03:54 METAR KSBY 210754Z AUTO 36003KT 1SM BR OVC003 21/19 A2992 RMK AO2 SLP135
                 T02110194 =
2014-09-21 03:37 METAR KSBY 210737Z AUTO 35003KT 1 3/4SM BR OVC003 22/19 A2993 RMK AO2 =
2014-09-21 03:14 METAR KSBY 210714Z AUTO 00000KT 5SM BR OVC003 22/19 A2994 RMK AO2 =
2014-09-21 02:54 METAR KSBY 210654Z AUTO 00000KT 7SM OVC005 22/19 A2994 =
2014-09-21 01:54 METAR KSBY 210554Z AUTO 33004KT 8SM OVC007 22/19 A2997 RMK AO2 SLP151 T02170194
                 10222 20211 58015 =
2014-09-21 00:54 METAR KSBY 210454Z AUTO 34007KT 8SM OVC007 22/19 A3001 RMK AO2 SLP162 T02170194
                 402720139 =
2014-09-20 23:54 METAR KSBY 210354Z AUTO 36005KT 8SM OVC009 22/19 A3001 RMK AO2 CIG 005V010
                 SLP165 T02170194 =
2014-09-20 22:54 METAR KSBY 210254Z AUTO 00000KT 10SM OVC013 22/19 A3002 RMK AO2 SLP166 T02170189
                 58022 =
2014-09-20 22:34 METAR KSBY 210234Z AUTO 00000KT 10SM BKN013 22/19 A3002 RMK AO2 =
2014-09-20 21:54 METAR KSBY 210154Z 08004KT 10SM OVC015 22/19 A3004 RMK AO2 SLP174 T02170189 =
2014-09-20 21:01 METAR KSBY 210101Z 05003KT 10SM BKN011 OVC021 22/19 A3007 RMK AO2 CIG 008V013 =
2014-09-20 20:54 METAR KSBY 210054Z 07003KT 10SM SCT011 OVC021 22/19 A3007 =
2014-09-20 19:54 METAR KSBY 202354Z 09005KT 10SM OVC011 22/18 A3008 RMK AO2 SLP188 T02220183
                 10272 20222 56010 =
2014-09-20 19:35 METAR KSBY 202335Z 04003KT 10SM OVC014 22/18 A3008 RMK AO2 =
2014-09-20 18:54 METAR KSBY 202254Z 08004KT 10SM BKN016 23/17 A3009 RMK AO2 SLP192 T02280172 =
2014-09-20 17:54 METAR KSBY 202154Z 10005KT 10SM SCT120 24/17 A3009 RMK AO2 SLP191 T02390172 =
2014-09-20 16:54 METAR KSBY 202054Z 10010KT 10SM SCT080 25/15 A3011 RMK AO2 SLP198 T02500150
                 56020 =
2014-09-20 15:54 METAR KSBY 201954Z 09011KT 10SM FEW028 26/16 A3013 RMK AO2 SLP204 T02610161 =
2014-09-20 14:54 METAR KSBY 201854Z 08008KT 10SM FEW029 OVC049 26/17 A3015 =

Support USWX by starting your Amazon purchase here.